Ridgeville, South Carolina
Current Conditions -  °F | °C
As of 3:15 PM on Saturday 20 Dec 2014 (Local Time) from KMKS Reporting Station
Haze Haze  
Wind Chill: 54°   Ceiling: NA
Heat Index: 54°   Visibility: 5mi
Dew Point: 50°   Wind: 6mph
Humidity: 88%   Direction: 40°NE
Pressure: 30.16"   Gusts: NA
Location:  33.1°N, 80.32°W
Report Text: KMKS 202015Z AUTO 04005KT 5SM BR 12/10 A3016 RMK AO2
Loading
Personal Weather Stations






























Interactive Weather Map New forecast layout! Learn more

10-Day Weather Forecast

Advertisements
Track Severe Weather on mobile